Time;durP1;ratioP1;P1;durP2;ratioP2;P2;SDS_P1;SDS_P2;PMS_P1;PMS_P2;Temp;Humidity;BMP_temperature;BMP_pressure;BME280_temperature;BME280_humidity;BME280_pressure;Samples;Min_cycle;Max_cycle;Signal;HPM_P1;HPM_P2
2021/05/31 00:00:07;;;;;;;15.52;12.00;;;17.80;99.90;;;18.07;65.32;102391.06;5055613;28;20044;-68
2021/05/31 00:02:35;;;;;;;17.65;13.02;;;17.80;99.90;;;17.94;65.15;102371.56;5054418;28;20388;-68
2021/05/31 00:05:05;;;;;;;16.70;12.18;;;17.80;99.90;;;17.97;65.26;102392.06;5055397;28;20495;-68
2021/05/31 00:07:33;;;;;;;19.38;11.95;;;17.70;99.90;;;18.04;65.21;102396.44;5055412;28;20130;-68
2021/05/31 00:10:00;;;;;;;18.63;12.48;;;17.70;99.90;;;18.06;65.11;102391.97;5055583;28;20049;-68
2021/05/31 00:12:28;;;;;;;14.85;12.02;;;17.70;99.90;;;18.02;65.15;102390.25;5055590;28;20045;-69
2021/05/31 00:14:57;;;;;;;20.50;12.52;;;17.70;99.90;;;18.01;65.02;102378.63;5055524;28;20037;-69
2021/05/31 00:17:26;;;;;;;16.00;12.25;;;17.70;99.90;;;17.93;64.85;102371.59;5054153;28;20041;-68
2021/05/31 00:19:55;;;;;;;15.35;11.98;;;17.70;99.90;;;18.00;64.91;102384.03;5054036;28;20475;-71
2021/05/31 00:22:24;;;;;;;15.60;11.82;;;17.70;99.90;;;17.97;65.01;102390.28;5055088;28;20040;-69
2021/05/31 00:24:53;;;;;;;15.95;11.82;;;17.60;99.90;;;17.99;65.08;102384.91;5054063;28;20049;-68
2021/05/31 00:27:21;;;;;;;16.30;12.13;;;17.60;99.90;;;17.97;64.88;102381.34;5053908;28;20383;-68
2021/05/31 00:29:48;;;;;;;17.95;12.55;;;17.70;99.90;;;17.97;64.82;102379.56;5074322;28;20121;-69
2021/05/31 00:32:16;;;;;;;16.15;12.02;;;17.60;99.90;;;17.95;64.91;102375.13;5095284;28;20129;-68
2021/05/31 00:34:44;;;;;;;15.68;12.25;;;17.70;99.90;;;17.96;64.71;102383.13;5095437;28;20093;-68
2021/05/31 00:37:13;;;;;;;18.58;12.05;;;17.70;99.90;;;17.93;64.83;102366.22;5095544;28;20129;-68
2021/05/31 00:39:41;;;;;;;17.00;11.48;;;17.60;99.90;;;17.90;64.82;102366.28;5095186;28;20476;-68
2021/05/31 00:42:10;;;;;;;17.50;11.98;;;17.60;99.90;;;17.88;64.80;102365.41;5094934;28;20405;-69
2021/05/31 00:44:39;;;;;;;15.60;11.63;;;17.60;99.90;;;17.79;64.74;102357.44;5076887;28;20084;-68
2021/05/31 00:47:07;;;;;;;16.38;11.65;;;17.50;99.90;;;17.80;64.87;102360.13;5076549;28;20110;-68
2021/05/31 00:49:38;;;;;;;19.02;11.93;;;17.40;99.90;;;17.67;64.79;102336.19;5094833;28;20151;-68
2021/05/31 00:52:07;;;;;;;17.08;11.93;;;17.50;99.90;;;17.77;64.87;102364.59;5095077;28;20052;-68
2021/05/31 00:54:36;;;;;;;16.00;12.23;;;17.50;99.90;;;17.79;64.90;102365.47;5095022;28;20052;-69
2021/05/31 00:57:06;;;;;;;16.23;11.52;;;17.40;99.90;;;17.75;64.93;102356.59;5095253;28;20870;-68
2021/05/31 00:59:35;;;;;;;22.30;11.77;;;17.40;99.90;;;17.67;64.80;102365.63;5094663;28;20044;-68
2021/05/31 01:02:04;;;;;;;17.02;13.00;;;17.40;99.90;;;17.67;65.05;102368.28;5094843;28;20044;-68
2021/05/31 01:04:32;;;;;;;13.25;11.18;;;17.30;99.90;;;17.69;64.88;102356.66;5094869;28;20084;-70
2021/05/31 01:07:12;;;;;;;15.07;11.55;;;17.30;99.90;;;17.67;64.88;102362.94;5076232;28;20056;-68
2021/05/31 01:09:55;;;;;;;17.00;12.25;;;17.30;99.90;;;17.63;65.01;102369.22;5094339;28;20546;-68
2021/05/31 01:12:32;;;;;;;15.02;11.63;;;17.30;99.90;;;17.64;64.93;102363.84;5094712;28;20048;-68
2021/05/31 01:15:08;;;;;;;15.52;11.48;;;17.30;99.90;;;17.58;64.92;102363.91;5094728;28;20044;-68
2021/05/31 01:17:47;;;;;;;21.73;11.90;;;17.30;99.90;;;17.52;64.99;102358.59;5094621;28;20071;-68
2021/05/31 01:20:29;;;;;;;17.98;12.07;;;17.20;99.90;;;17.50;65.18;102364.91;5094456;28;20086;-68
2021/05/31 01:22:59;;;;;;;16.80;12.07;;;17.10;99.90;;;17.36;65.35;102359.63;5076331;28;20374;-68
2021/05/31 01:25:35;;;;;;;15.10;11.25;;;17.10;99.90;;;17.29;65.58;102355.19;5094147;28;20473;-68
2021/05/31 01:28:54;;;;;;;16.95;12.13;;;17.00;99.90;;;17.03;65.78;102351.84;5094406;28;20113;-68
2021/05/31 01:31:31;;;;;;;16.48;12.30;;;16.90;99.90;;;16.98;66.45;102350.97;5093895;28;20055;-68
2021/05/31 01:34:00;;;;;;;21.58;12.65;;;16.70;99.90;;;17.01;66.38;102349.16;5094000;28;20400;-68
2021/05/31 01:36:34;;;;;;;17.58;12.43;;;16.70;99.90;;;16.71;66.34;102297.72;5075688;28;20097;-68
2021/05/31 01:39:04;;;;;;;16.63;13.10;;;16.70;99.90;;;16.97;66.30;102350.13;5093792;28;20546;-68
2021/05/31 01:41:32;;;;;;;16.30;12.23;;;16.70;99.90;;;16.92;66.30;102349.25;5094167;28;20048;-68
2021/05/31 01:44:02;;;;;;;15.98;12.75;;;16.60;99.90;;;16.66;66.75;102351.22;5094022;28;20086;-69
2021/05/31 01:46:31;;;;;;;14.70;12.07;;;16.50;99.90;;;16.66;66.82;102353.88;5094104;28;20060;-68
2021/05/31 01:49:00;;;;;;;15.18;11.95;;;16.40;99.90;;;16.64;66.88;102347.66;5093795;28;20123;-68
2021/05/31 01:51:28;;;;;;;14.98;12.32;;;16.40;99.90;;;16.55;67.16;102345.00;5075672;28;20072;-68
2021/05/31 01:53:57;;;;;;;17.20;12.60;;;16.30;99.90;;;16.53;67.43;102348.63;5093845;28;20071;-69
2021/05/31 01:56:26;;;;;;;15.85;13.00;;;16.30;99.90;;;16.43;67.62;102336.16;5075285;28;20482;-68
2021/05/31 01:58:54;;;;;;;18.33;13.07;;;16.20;99.90;;;16.40;67.75;102338.81;5093639;28;20040;-68
2021/05/31 02:01:24;;;;;;;17.27;13.38;;;16.10;99.90;;;16.35;68.01;102344.22;5093621;28;20064;-69
2021/05/31 02:03:52;;;;;;;18.10;14.18;;;16.10;99.90;;;16.31;68.28;102339.78;5093810;28;20047;-68
2021/05/31 02:06:20;;;;;;;18.13;13.90;;;16.10;99.90;;;16.32;68.39;102336.19;5093590;28;20118;-68
2021/05/31 02:08:48;;;;;;;19.33;13.43;;;16.10;99.90;;;16.32;68.34;102335.31;5093532;28;20079;-68
2021/05/31 02:11:24;;;;;;;17.65;12.90;;;16.00;99.90;;;16.34;68.60;102330.88;5093532;28;20044;-68
2021/05/31 02:13:56;;;;;;;17.42;13.75;;;16.10;99.90;;;16.38;68.63;102329.94;5075302;28;20436;-68
2021/05/31 02:16:34;;;;;;;20.73;14.05;;;16.10;99.90;;;16.31;68.44;102333.53;5074970;28;20135;-68
2021/05/31 02:19:04;;;;;;;17.60;13.93;;;16.00;99.90;;;16.31;68.66;102331.75;5092809;28;20089;-69
2021/05/31 02:21:35;;;;;;;21.17;14.02;;;16.00;99.90;;;16.21;68.66;102327.34;5093371;28;20044;-68
2021/05/31 02:24:04;;;;;;;22.92;14.32;;;16.00;99.90;;;16.03;69.00;102306.03;5075219;28;20494;-69
2021/05/31 02:26:33;;;;;;;17.48;13.77;;;15.90;99.90;;;16.14;69.21;102333.63;5092953;28;20052;-68
2021/05/31 02:29:01;;;;;;;18.63;14.82;;;15.90;99.90;;;16.12;69.45;102327.41;5093375;28;20075;-68
2021/05/31 02:31:32;;;;;;;19.98;14.48;;;15.90;99.90;;;16.10;69.58;102326.50;5093203;28;20051;-69
2021/05/31 02:34:00;;;;;;;17.95;14.93;;;15.80;99.90;;;16.11;69.80;102333.59;5093156;28;20044;-68
2021/05/31 02:36:28;;;;;;;22.08;14.70;;;15.80;99.90;;;16.13;69.68;102335.38;5092831;28;20157;-68
2021/05/31 02:38:56;;;;;;;19.85;15.30;;;15.80;99.90;;;16.05;69.87;102336.28;5092664;28;20073;-69
2021/05/31 02:41:23;;;;;;;22.23;16.05;;;15.80;99.90;;;16.02;69.99;102339.00;5092689;28;20476;-68
2021/05/31 02:43:51;;;;;;;21.75;15.43;;;15.80;99.90;;;16.04;69.94;102330.09;5092957;28;20040;-68
2021/05/31 02:46:19;;;;;;;22.25;15.77;;;15.80;99.90;;;15.99;70.19;102339.88;5093214;28;20082;-68
2021/05/31 02:48:49;;;;;;;20.67;15.60;;;15.70;99.90;;;15.98;70.29;102331.88;5093110;28;20052;-68
2021/05/31 02:51:17;;;;;;;19.38;14.18;;;15.70;99.90;;;15.49;70.45;102250.19;5092877;28;20040;-68
2021/05/31 02:53:45;;;;;;;20.40;14.75;;;15.70;99.90;;;16.04;70.25;102339.88;5074767;28;20508;-69
2021/05/31 02:56:13;;;;;;;21.55;15.02;;;15.70;99.90;;;16.00;70.21;102335.44;5092684;28;20101;-68
2021/05/31 02:58:42;;;;;;;21.42;16.20;;;15.70;99.90;;;15.82;70.55;102331.03;5092435;28;20064;-68
2021/05/31 03:01:10;;;;;;;22.17;16.08;;;15.60;99.90;;;15.88;70.76;102331.03;5092629;28;20151;-68
2021/05/31 03:03:38;;;;;;;22.50;16.33;;;15.60;99.90;;;15.90;70.79;102333.69;5092717;28;20055;-68
2021/05/31 03:06:07;;;;;;;20.85;15.23;;;15.60;99.90;;;15.81;71.11;102321.28;5092693;28;20072;-67
2021/05/31 03:08:35;;;;;;;21.27;15.93;;;15.60;99.90;;;15.87;71.10;102326.56;5092630;28;20105;-68
2021/05/31 03:11:03;;;;;;;22.27;16.67;;;15.60;99.90;;;15.78;71.30;102321.25;5092571;28;20052;-67
2021/05/31 03:13:31;;;;;;;23.08;15.90;;;15.50;99.90;;;15.81;71.37;102323.03;5092444;28;20138;-68
2021/05/31 03:15:59;;;;;;;22.15;16.85;;;15.50;99.90;;;15.81;71.36;102309.69;5092752;28;20454;-68
2021/05/31 03:18:27;;;;;;;23.25;16.90;;;15.50;99.90;;;15.65;71.77;102315.94;5092468;28;20048;-70
2021/05/31 03:20:55;;;;;;;21.67;16.52;;;15.40;99.90;;;15.67;71.92;102311.50;5092606;28;20040;-67
2021/05/31 03:23:24;;;;;;;22.52;17.00;;;15.40;99.90;;;15.71;72.05;102327.50;5092447;28;20488;-68
2021/05/31 03:25:53;;;;;;;19.80;17.15;;;15.40;99.90;;;15.72;72.10;102333.72;5092311;28;20508;-69
2021/05/31 03:28:21;;;;;;;22.30;17.17;;;15.40;99.90;;;15.65;72.12;102327.53;5092907;28;20044;-68
2021/05/31 03:30:49;;;;;;;24.67;16.98;;;15.40;99.90;;;15.65;72.14;102324.84;5078203;28;20125;-68
2021/05/31 03:33:16;;;;;;;24.20;18.70;;;15.40;99.90;;;15.61;72.31;102325.75;5096572;28;20044;-68
2021/05/31 03:35:44;;;;;;;23.20;18.15;;;15.40;99.90;;;15.44;73.04;102324.00;5096664;28;20040;-68
2021/05/31 03:38:13;;;;;;;29.55;19.27;;;15.20;99.90;;;15.45;73.09;102312.44;5096448;28;20446;-68
2021/05/31 03:40:42;;;;;;;25.95;18.38;;;15.20;99.90;;;15.56;72.90;102321.31;5096425;28;20117;-68
2021/05/31 03:43:10;;;;;;;21.75;17.92;;;15.20;99.90;;;15.56;73.00;102315.97;5078189;28;20090;-68
2021/05/31 03:45:38;;;;;;;23.65;17.42;;;15.30;99.90;;;15.61;72.74;102316.84;5096336;28;20051;-68
2021/05/31 03:48:06;;;;;;;24.27;18.38;;;15.30;99.90;;;15.61;72.82;102315.06;5096304;28;20040;-68
2021/05/31 03:50:34;;;;;;;26.15;19.25;;;15.30;99.90;;;15.47;72.97;102318.63;5096224;28;20097;-68
2021/05/31 03:53:02;;;;;;;29.15;18.10;;;15.30;99.90;;;15.51;73.42;102317.75;5096122;28;20048;-68
2021/05/31 03:55:30;;;;;;;27.55;19.00;;;15.20;99.90;;;15.41;73.57;102316.84;5077674;28;20090;-68
2021/05/31 03:58:00;;;;;;;25.95;18.83;;;15.20;99.90;;;15.55;73.62;102324.84;5096039;28;20443;-68
2021/05/31 04:00:28;;;;;;;25.88;19.15;;;15.20;99.90;;;15.44;73.49;102305.31;5095975;28;20121;-68
2021/05/31 04:02:57;;;;;;;24.60;19.42;;;15.20;99.90;;;15.45;73.85;102317.78;5095972;28;20040;-68
2021/05/31 04:05:29;;;;;;;25.38;19.08;;;15.20;99.90;;;15.48;73.86;102317.78;5096015;28;20132;-68
2021/05/31 04:13:42;;;;;;;24.73;18.77;;;15.20;99.90;;;15.45;74.03;102317.78;5085949;28;20056;-69
2021/05/31 04:16:09;;;;;;;26.67;20.15;;;15.20;99.90;;;15.52;73.93;102330.22;5095503;28;20555;-70
2021/05/31 04:18:38;;;;;;;28.63;20.13;;;15.20;99.90;;;15.41;74.07;102321.31;5095724;28;20047;-69
2021/05/31 04:21:05;;;;;;;28.27;20.70;;;15.20;99.90;;;15.25;74.32;102320.44;5095535;28;20075;-70
2021/05/31 04:23:33;;;;;;;27.35;20.17;;;15.10;99.90;;;15.26;74.87;102320.41;5095515;28;20094;-71
2021/05/31 04:26:01;;;;;;;25.23;20.17;;;15.00;99.90;;;15.11;74.95;102300.88;5095492;28;20048;-73
2021/05/31 04:28:29;;;;;;;27.60;20.27;;;15.00;99.90;;;15.28;75.17;102326.63;5095491;28;20039;-73
2021/05/31 04:31:00;;;;;;;33.17;20.63;;;15.00;99.90;;;15.15;74.98;102294.66;5095183;28;20109;-72
2021/05/31 04:33:28;;;;;;;29.05;20.98;;;15.00;99.90;;;15.34;74.90;102315.06;5095671;28;20040;-72
2021/05/31 04:35:56;;;;;;;29.45;21.50;;;15.10;99.90;;;15.37;75.10;102315.97;5095072;28;20048;-72
2021/05/31 04:38:25;;;;;;;31.05;20.95;;;15.10;99.90;;;15.37;74.81;102313.28;5077035;28;20056;-72
2021/05/31 04:40:53;;;;;;;26.67;20.20;;;15.10;99.90;;;15.41;74.96;102318.63;5093702;28;20040;-73
2021/05/31 04:43:21;;;;;;;29.92;21.98;;;15.10;99.90;;;15.29;75.22;102307.06;5076899;28;20044;-72
2021/05/31 04:45:49;;;;;;;31.77;22.95;;;15.10;99.90;;;15.36;75.10;102321.31;5094957;28;20126;-72
2021/05/31 04:48:19;;;;;;;34.13;22.40;;;15.10;99.90;;;15.26;75.17;102316.84;5076672;28;20048;-72
2021/05/31 04:50:47;;;;;;;27.75;21.40;;;15.10;99.90;;;15.21;75.66;102316.84;5076792;28;20051;-72
2021/05/31 04:53:15;;;;;;;30.35;22.10;;;15.00;99.90;;;15.18;76.00;102337.28;5094975;28;20044;-72
2021/05/31 04:55:43;;;;;;;27.20;22.52;;;15.00;99.90;;;15.34;76.08;102331.97;5094838;28;20511;-72
2021/05/31 04:58:11;;;;;;;32.17;23.20;;;15.10;99.90;;;15.20;76.06;102328.41;5094724;28;20046;-72
2021/05/31 05:00:39;;;;;;;32.45;22.23;;;15.00;99.90;;;14.63;76.33;102227.16;5094775;28;20073;-72
2021/05/31 05:03:07;;;;;;;31.27;22.73;;;15.00;99.90;;;14.76;77.49;102322.16;5094806;28;20089;-72
2021/05/31 05:05:36;;;;;;;35.15;23.58;;;14.70;99.90;;;15.07;77.27;102325.75;5094765;28;20055;-73
2021/05/31 05:08:05;;;;;;;29.52;22.48;;;14.80;99.90;;;15.25;76.88;102325.75;5094605;28;20064;-72
2021/05/31 05:10:34;;;;;;;33.22;23.45;;;14.90;99.90;;;15.19;77.04;102315.09;5094226;28;20467;-72
2021/05/31 05:13:02;;;;;;;37.60;23.25;;;15.00;99.90;;;15.27;77.63;102326.66;5094575;28;20118;-72
2021/05/31 05:15:30;;;;;;;31.75;24.08;;;15.00;99.90;;;15.04;78.00;102318.63;5094563;28;20430;-73
2021/05/31 05:17:59;;;;;;;37.22;24.50;;;14.80;99.90;;;15.07;78.53;102321.31;5094361;28;20101;-72
2021/05/31 05:20:29;;;;;;;31.42;22.80;;;14.80;99.90;;;15.13;78.53;102321.31;5094402;28;20101;-73
2021/05/31 05:22:58;;;;;;;34.63;23.90;;;14.80;99.90;;;15.30;77.59;102307.97;5076233;28;20052;-72
2021/05/31 05:25:46;;;;;;;28.88;23.95;;;15.00;99.90;;;15.49;77.26;102314.19;5094179;28;20333;-73
2021/05/31 05:28:14;;;;;;;32.17;24.02;;;15.20;99.90;;;15.69;76.73;102317.72;5094236;28;20075;-72
2021/05/31 05:30:42;;;;;;;33.95;24.42;;;15.40;99.90;;;15.85;76.09;102320.34;5094217;28;20482;-73
2021/05/31 05:33:10;;;;;;;30.10;23.38;;;15.50;99.90;;;15.90;75.77;102315.91;5093720;28;20036;-72
2021/05/31 05:35:41;;;;;;;37.65;24.33;;;15.60;99.90;;;16.02;75.30;102312.28;5094193;28;20044;-73
2021/05/31 05:38:27;;;;;;;34.15;23.45;;;15.70;99.90;;;16.00;75.14;102314.09;5093881;28;20093;-73
2021/05/31 05:41:10;;;;;;;36.08;23.50;;;15.70;99.90;;;15.84;75.59;102315.00;5093761;28;20036;-73
2021/05/31 05:43:47;;;;;;;29.80;22.60;;;15.60;99.90;;;15.57;75.30;102206.59;5075439;28;20052;-73
2021/05/31 05:46:32;;;;;;;37.53;23.63;;;15.90;99.90;;;16.40;74.67;102314.78;5075693;28;20118;-73
2021/05/31 05:49:01;;;;;;;34.92;24.50;;;16.00;99.90;;;16.45;74.10;102311.22;5093358;28;20048;-73
2021/05/31 05:51:29;;;;;;;30.77;22.73;;;16.20;99.90;;;16.52;73.55;102302.31;5093452;28;20160;-73
2021/05/31 05:54:01;;;;;;;35.35;24.05;;;16.30;99.90;;;16.61;73.19;102310.25;5093498;28;20044;-73
2021/05/31 05:56:30;;;;;;;31.33;23.08;;;16.40;99.90;;;16.85;73.10;102304.75;5075819;28;20052;-74
2021/05/31 05:58:58;;;;;;;33.40;23.92;;;16.50;99.90;;;16.97;72.56;102315.38;5093632;28;20109;-73
2021/05/31 06:01:26;;;;;;;31.55;23.23;;;16.70;99.90;;;16.52;73.29;102312.09;5093526;28;20043;-73
2021/05/31 06:03:55;;;;;;;35.00;23.63;;;16.40;99.90;;;16.48;73.80;102303.22;5093721;28;20063;-73
2021/05/31 06:06:25;;;;;;;36.30;24.60;;;16.30;99.90;;;16.48;73.44;102276.50;5093220;28;20036;-73
2021/05/31 06:08:53;;;;;;;35.97;24.35;;;16.30;99.90;;;16.02;74.90;102310.53;5093169;28;20074;-72
2021/05/31 06:11:24;;;;;;;34.85;24.23;;;16.00;99.90;;;16.11;75.83;102310.47;5093707;28;20043;-73
2021/05/31 06:13:52;;;;;;;35.70;25.48;;;15.90;99.90;;;16.44;75.55;102306.75;5093702;28;20063;-73
2021/05/31 06:16:21;;;;;;;31.60;24.05;;;16.00;99.90;;;16.69;74.62;102303.06;5093179;28;20099;-73
2021/05/31 06:18:50;;;;;;;34.90;24.42;;;16.30;99.90;;;16.36;75.06;102305.91;5093290;28;20063;-72
2021/05/31 06:21:19;;;;;;;31.88;24.38;;;16.20;99.90;;;16.08;75.81;102306.94;5093104;28;20044;-72
2021/05/31 06:23:47;;;;;;;35.53;23.55;;;15.90;99.90;;;16.29;77.15;102306.84;5093143;28;20166;-72
2021/05/31 06:26:15;;;;;;;30.35;24.35;;;15.90;99.90;;;16.79;75.46;102304.78;5074586;28;20451;-72
2021/05/31 06:28:44;;;;;;;31.00;24.77;;;16.30;99.90;;;17.10;74.06;102309.00;5092727;28;20044;-73
2021/05/31 06:31:12;;;;;;;34.67;23.88;;;16.70;99.90;;;17.09;73.07;102314.38;5092686;28;20052;-73
2021/05/31 06:33:40;;;;;;;35.67;24.55;;;16.90;99.90;;;17.29;73.34;102309.72;5092537;28;20072;-72
2021/05/31 06:36:10;;;;;;;33.72;22.48;;;16.90;99.90;;;17.32;72.05;102307.03;5074879;28;20094;-73
2021/05/31 06:38:38;;;;;;;34.35;24.58;;;17.10;99.90;;;17.12;74.02;102304.53;5092687;28;20558;-73
2021/05/31 06:41:06;;;;;;;32.50;22.88;;;16.90;99.90;;;16.63;74.34;102313.78;5074430;28;20080;-73
2021/05/31 06:43:34;;;;;;;32.97;23.38;;;16.50;99.90;;;16.76;74.05;102299.44;5093177;28;20134;-73
2021/05/31 06:46:09;;;;;;;35.92;22.98;;;16.50;99.90;;;16.97;73.68;102302.00;5092619;28;20036;-74
2021/05/31 06:48:37;;;;;;;36.37;23.13;;;16.70;99.90;;;17.36;72.56;102313.25;5092514;28;20154;-73
2021/05/31 06:51:06;;;;;;;37.58;23.95;;;17.00;99.90;;;17.58;71.54;102290.75;5092643;28;20043;-73
2021/05/31 06:53:35;;;;;;;33.00;22.95;;;17.30;99.90;;;16.98;71.78;102306.44;5092523;28;20131;-72
2021/05/31 06:56:03;;;;;;;33.25;22.08;;;16.90;99.90;;;17.26;71.79;102303.53;5092703;28;20397;-73
2021/05/31 06:58:31;;;;;;;31.95;21.92;;;16.90;99.90;;;17.43;71.81;102297.13;5074361;28;20125;-73
2021/05/31 07:00:59;;;;;;;29.40;21.00;;;17.10;99.90;;;17.79;70.86;102310.16;5092716;28;20082;-73
2021/05/31 07:03:29;;;;;;;29.48;21.48;;;17.40;99.90;;;17.91;69.78;102275.22;5092036;28;20044;-72
2021/05/31 07:05:57;;;;;;;26.20;20.42;;;17.70;99.90;;;17.60;70.47;102299.66;5092265;28;20132;-73
2021/05/31 07:08:26;;;;;;;31.70;20.75;;;17.40;99.90;;;17.74;69.25;102293.25;5092354;28;20047;-73
2021/05/31 07:10:56;;;;;;;25.20;19.13;;;17.50;99.90;;;17.76;68.78;102301.28;5092547;28;20568;-73
2021/05/31 07:13:25;;;;;;;29.02;20.35;;;17.50;99.90;;;17.70;70.61;102306.69;5092523;28;20044;-73
2021/05/31 07:15:54;;;;;;;28.40;20.05;;;17.50;99.90;;;17.59;70.81;102290.75;5092207;28;20424;-73
2021/05/31 07:18:23;;;;;;;26.33;19.58;;;17.30;99.90;;;18.06;70.56;102292.00;5092173;28;20076;-72
2021/05/31 07:20:53;;;;;;;26.13;19.38;;;17.60;99.90;;;18.44;68.19;102301.34;5074090;28;20036;-73
2021/05/31 07:23:21;;;;;;;28.67;18.70;;;18.00;99.90;;;18.30;66.07;102289.88;5092406;28;20059;-73
2021/05/31 07:25:50;;;;;;;28.02;18.75;;;18.10;99.90;;;18.01;67.05;102300.09;5092271;28;20144;-73
2021/05/31 07:28:18;;;;;;;26.95;18.63;;;17.80;99.90;;;18.27;68.85;102294.41;5092533;28;20044;-72
2021/05/31 07:30:46;;;;;;;27.67;18.25;;;17.90;99.90;;;18.20;66.88;102292.69;5092085;28;20048;-72
2021/05/31 07:33:14;;;;;;;21.55;17.50;;;17.90;99.90;;;18.51;67.42;102296.78;5092119;28;20052;-70
2021/05/31 07:35:43;;;;;;;22.80;17.33;;;18.10;99.90;;;18.90;68.01;102291.72;5091890;28;20048;-74
2021/05/31 07:38:12;;;;;;;27.27;18.08;;;18.50;99.90;;;18.88;63.85;102298.91;5092669;28;20377;-73
2021/05/31 07:40:41;;;;;;;27.85;18.35;;;18.70;99.90;;;17.96;63.83;102186.81;5091795;28;20059;-72
2021/05/31 07:43:09;;;;;;;27.20;18.95;;;18.30;99.90;;;18.69;65.72;102280.44;5091901;28;20040;-72
2021/05/31 07:45:37;;;;;;;26.02;18.00;;;18.40;99.90;;;19.16;64.93;102287.72;5091852;28;20044;-73
2021/05/31 07:48:06;;;;;;;22.92;17.13;;;18.80;99.90;;;18.97;62.32;102295.16;5092520;28;20059;-73
2021/05/31 07:50:34;;;;;;;25.83;16.77;;;18.80;99.90;;;18.92;63.73;102287.22;5091997;28;20052;-66
2021/05/31 07:53:06;;;;;;;23.73;17.67;;;18.60;99.90;;;19.25;65.16;102282.19;5073743;28;20105;-69
2021/05/31 07:55:36;;;;;;;22.25;16.17;;;18.80;99.90;;;19.55;63.11;102293.28;5092027;28;20051;-66
2021/05/31 07:58:05;;;;;;;26.30;16.48;;;19.20;99.90;;;19.86;62.87;102282.81;5091958;28;20051;-66
2021/05/31 08:00:33;;;;;;;24.92;16.75;;;19.50;99.90;;;20.12;60.11;102293.03;5092423;28;20504;-67
2021/05/31 08:03:01;;;;;;;20.30;16.23;;;19.80;99.90;;;20.06;59.28;102291.38;5091718;28;20490;-66
2021/05/31 08:05:30;;;;;;;22.33;16.42;;;19.70;99.90;;;20.27;60.40;102284.69;5073842;28;20054;-67
2021/05/31 08:07:58;;;;;;;25.02;17.20;;;20.00;99.90;;;20.48;60.49;102290.47;5073704;28;20052;-66
2021/05/31 08:10:26;;;;;;;22.90;16.25;;;20.20;99.90;;;20.81;59.89;102287.94;5091702;28;20564;-66
2021/05/31 08:12:55;;;;;;;20.63;14.48;;;20.50;99.90;;;20.99;57.77;102284.78;5091906;28;20055;-70
2021/05/31 08:15:23;;;;;;;19.92;14.95;;;20.70;99.90;;;21.03;57.19;102279.34;5093942;28;20056;-69
2021/05/31 08:17:51;;;;;;;21.55;16.17;;;20.80;99.90;;;20.82;58.65;102284.31;5095689;28;20055;-69
2021/05/31 08:20:19;;;;;;;19.23;15.55;;;20.70;99.90;;;21.18;57.42;102288.81;5095638;28;20040;-69
2021/05/31 08:22:48;;;;;;;18.80;15.45;;;20.80;99.90;;;21.21;56.02;102292.34;5095332;28;20040;-70
2021/05/31 08:25:16;;;;;;;20.60;15.05;;;20.90;99.90;;;21.22;57.74;102287.81;5095268;28;20048;-69
2021/05/31 08:27:45;;;;;;;24.23;14.68;;;20.90;99.90;;;21.24;56.51;102285.97;5077275;28;20048;-69
2021/05/31 08:30:17;;;;;;;17.88;13.52;;;21.00;99.90;;;21.56;55.58;102291.41;5095520;28;20040;-69
2021/05/31 08:32:45;;;;;;;18.90;14.68;;;21.20;99.90;;;21.63;54.02;102294.81;5076859;28;20056;-70
2021/05/31 08:35:13;;;;;;;20.35;13.88;;;21.40;99.90;;;21.62;55.48;102302.03;5077433;28;20063;-69
2021/05/31 08:37:41;;;;;;;17.08;13.68;;;21.40;99.90;;;21.48;55.66;102288.94;5095480;28;20048;-70
2021/05/31 08:40:11;;;;;;;19.38;13.15;;;21.20;99.90;;;21.60;54.16;102295.78;5094871;28;20043;-68
2021/05/31 08:42:42;;;;;;;16.60;11.75;;;21.40;99.90;;;21.56;53.51;102284.19;5077025;28;20048;-66
2021/05/31 08:45:15;;;;;;;17.98;12.30;;;21.50;99.90;;;21.45;52.84;102299.75;5095142;28;20144;-66
2021/05/31 08:47:45;;;;;;;23.35;14.00;;;21.30;99.90;;;21.47;54.47;102288.94;5095284;28;20064;-66
2021/05/31 08:50:17;;;;;;;19.27;12.85;;;21.20;99.90;;;21.41;53.73;102286.41;5094745;28;20054;-66
2021/05/31 08:52:46;;;;;;;18.27;11.27;;;21.20;99.90;;;21.62;53.00;102288.56;5094846;28;20044;-66
2021/05/31 08:55:19;;;;;;;16.95;12.68;;;21.30;99.90;;;21.13;52.70;102204.63;5094953;28;20040;-66
2021/05/31 08:57:49;;;;;;;18.13;11.93;;;21.30;99.90;;;21.99;54.13;102275.81;5095029;28;20032;-65
2021/05/31 09:00:24;;;;;;;20.20;11.10;;;21.60;99.90;;;21.94;51.74;102276.88;5094738;28;20376;-65
2021/05/31 09:02:54;;;;;;;15.00;11.10;;;21.70;99.90;;;21.90;50.43;102276.09;5094743;28;20052;-66
2021/05/31 09:05:33;;;;;;;15.90;9.48;;;21.60;99.90;;;21.66;48.06;102276.75;5076642;28;20132;-67
2021/05/31 09:08:06;;;;;;;11.38;8.93;;;21.50;99.90;;;22.07;50.36;102279.19;5094879;28;20182;-66
2021/05/31 09:10:47;;;;;;;14.68;10.45;;;21.70;99.90;;;22.11;49.63;102275.47;5076547;28;20071;-66
2021/05/31 09:13:28;;;;;;;15.48;9.95;;;21.90;99.90;;;22.07;50.47;102272.91;5094484;28;20079;-66
2021/05/31 09:16:13;;;;;;;13.25;8.95;;;21.80;99.90;;;22.32;48.76;102274.81;5094593;28;20052;-67
2021/05/31 09:18:46;;;;;;;13.85;8.85;;;22.00;99.90;;;21.61;49.21;102179.03;5094601;28;20058;-68
2021/05/31 09:21:17;;;;;;;11.98;9.35;;;21.90;99.90;;;22.15;48.66;102277.16;5076194;28;20493;-68
2021/05/31 09:23:49;;;;;;;11.32;8.55;;;21.90;99.90;;;22.20;48.55;102274.31;5094670;28;20097;-69
2021/05/31 09:26:17;;;;;;;11.90;8.73;;;21.80;99.90;;;22.41;49.49;102260.19;5093502;28;20493;-65
2021/05/31 09:28:57;;;;;;;12.18;8.20;;;22.00;99.90;;;22.77;47.82;102271.66;5094624;28;20109;-67
2021/05/31 09:31:28;;;;;;;10.90;8.30;;;22.40;99.90;;;22.93;46.90;102262.13;5094247;28;20094;-63
2021/05/31 09:33:59;;;;;;;12.35;7.55;;;22.60;99.90;;;22.85;47.16;102261.50;5093799;28;20051;-65
2021/05/31 09:36:47;;;;;;;13.93;9.25;;;22.80;99.90;;;22.72;46.05;102268.22;5093830;28;20040;-66
2021/05/31 09:39:15;;;;;;;13.70;9.07;;;22.50;99.90;;;22.88;47.40;102264.09;5076269;28;20079;-67
2021/05/31 09:41:43;;;;;;;13.55;8.07;;;22.50;99.90;;;22.87;47.67;102257.81;5094004;28;20040;-66
2021/05/31 09:44:11;;;;;;;15.02;8.05;;;22.50;99.90;;;22.82;45.41;102256.19;5093818;28;20047;-69
2021/05/31 09:46:42;;;;;;;11.80;9.00;;;22.60;99.90;;;22.96;47.47;102251.22;5075626;28;20044;-69
2021/05/31 09:49:16;;;;;;;10.38;7.10;;;22.60;99.90;;;23.37;45.39;102248.00;5093912;28;20048;-69
2021/05/31 09:51:58;;;;;;;6.40;5.80;;;23.00;99.90;;;22.81;40.92;102158.16;5094164;28;20051;-69
2021/05/31 09:54:34;;;;;;;10.40;7.30;;;23.20;99.90;;;23.59;43.04;102254.44;5093826;28;20082;-66
2021/05/31 09:57:17;;;;;;;8.15;6.05;;;23.30;99.90;;;23.32;40.17;102254.50;5093568;28;20036;-67
2021/05/31 09:59:48;;;;;;;9.27;5.88;;;23.20;99.90;;;23.10;39.24;102241.72;5093483;28;20055;-67
2021/05/31 10:02:22;;;;;;;8.68;6.60;;;23.00;99.90;;;23.11;42.53;102235.38;5093733;28;20074;-67
2021/05/31 10:05:07;;;;;;;8.05;6.78;;;22.90;99.90;;;22.96;40.57;102252.09;5075425;28;20067;-67
2021/05/31 10:07:51;;;;;;;8.15;5.93;;;22.70;99.90;;;23.49;42.49;102247.59;5093308;28;20370;-66
2021/05/31 10:10:19;;;;;;;9.00;6.32;;;23.10;99.90;;;23.37;40.58;102245.31;5075260;28;20052;-66
2021/05/31 10:12:53;;;;;;;11.60;6.50;;;23.20;99.90;;;23.41;40.89;102248.78;5093437;28;20063;-66
2021/05/31 10:15:24;;;;;;;7.07;5.72;;;23.10;99.90;;;23.07;42.11;102246.34;5093324;28;20440;-66
2021/05/31 10:17:55;;;;;;;9.05;6.97;;;22.90;99.90;;;22.73;42.82;102235.78;5093524;28;20118;-66